To NAV CANADA Home Page Login to a new session Search on AWWS site Feedback and Comments Disclaimer Vers la page française équivalente Tips FAQ What's new on the site To the Forecasts and Observations / NOTAM section To "File a Flight Plan" website Publications and other links Update of the User's profile FIC Telephone Numbers My Weather Data Folder Route Weather Data Regional Weather Data Local Weather Data To the Forecasts and Observations / NOTAM section
Request Generated 05/28/2016 at 22:02:05 UTC . Weather information available at that time is displayed.

METAR/TAF

MAYO/YT    

METAR CYMA 282100Z 27004KT 230V330 20SM BKN055 16/M05 A3008 RMK CU6
SLP203 DENSITY ALT 1900FT=
METAR CYMA 282000Z 00000KT 20SM BKN055TCU 14/M03 A3009 RMK TCU6
SLP208 DENSITY ALT 1700FT=
METAR CYMA 281900Z VRB06KT 20SM BKN055 14/M03 A3010 RMK CU5 SLP210
DENSITY ALT 1700FT=

TAF CYMA 281742Z 2818/2906 09007KT P6SM FEW050 SCT090
BECMG 2821/2823 04007KT
RMK NXT FCST BY 290000Z=
Your time UTC time
Weather data provided by Environment Canada and NAV CANADA